createdAt,value
2018-08-28T01:06:58.250Z,3.00
2018-08-28T01:12:00.495Z,3.30
2018-08-28T01:17:02.779Z,3.20
2018-08-28T01:22:05.221Z,4.07
2018-08-28T01:27:07.336Z,3.03
2018-08-28T01:32:09.438Z,3.00
2018-08-28T01:37:11.621Z,2.83
2018-08-28T03:05:33.836Z,4.00
2018-08-28T03:10:36.764Z,3.73
2018-08-28T03:15:39.018Z,4.23
2018-08-28T03:20:41.062Z,4.57
2018-08-28T03:25:43.190Z,3.83
2018-08-28T03:30:45.346Z,4.17
2018-08-28T03:35:47.491Z,3.80
2018-08-28T03:40:49.618Z,3.30
2018-08-28T03:45:51.734Z,4.30
2018-08-28T03:50:53.842Z,3.87
2018-08-28T03:55:55.963Z,3.93
2018-08-28T04:00:58.080Z,4.20
2018-08-28T04:06:00.178Z,4.60
2018-08-28T04:11:02.329Z,4.60
2018-08-28T04:16:04.533Z,3.63
2018-08-28T04:21:06.654Z,3.83
2018-08-28T04:26:08.767Z,3.30
2018-08-28T04:31:10.887Z,4.20
2018-08-28T04:36:12.996Z,4.00
2018-08-28T04:41:15.122Z,4.27
2018-08-28T04:46:17.269Z,3.87
2018-08-28T04:51:19.402Z,4.93
2018-08-28T04:56:21.498Z,3.43
2018-08-28T05:01:23.602Z,3.90
2018-08-28T05:06:25.745Z,3.63
2018-08-28T05:11:27.895Z,3.60
2018-08-28T05:16:30.029Z,3.90
2018-08-28T05:21:32.174Z,3.63
2018-08-28T05:26:34.291Z,4.63
2018-08-28T05:31:36.374Z,4.03
2018-08-28T05:36:38.514Z,5.50
2018-08-28T05:41:40.639Z,4.30
2018-08-28T05:46:42.769Z,4.97
2018-08-28T05:51:44.906Z,4.70
2018-08-28T05:56:47.004Z,4.30
2018-08-28T06:01:49.153Z,5.00
2018-08-28T06:06:51.267Z,5.10
2018-08-28T06:11:53.433Z,4.40
2018-08-28T06:16:55.528Z,4.57
2018-08-28T06:21:57.646Z,4.90
2018-08-28T06:26:59.774Z,5.10
2018-08-28T06:32:01.875Z,4.07
2018-08-28T06:37:04.039Z,3.60
2018-08-28T06:42:06.221Z,5.17
2018-08-28T06:47:08.387Z,3.97
2018-08-28T06:52:10.607Z,4.60
2018-08-28T06:57:12.774Z,4.30
2018-08-28T07:02:14.906Z,3.80
2018-08-28T07:07:17.031Z,3.20
2018-08-28T07:12:19.228Z,4.30
2018-08-28T07:17:23.054Z,4.37
2018-08-28T07:22:26.368Z,3.07
2018-08-28T07:27:28.511Z,3.63
2018-08-28T07:32:30.616Z,3.83
2018-08-28T07:37:33.295Z,2.80
2018-08-28T07:42:35.407Z,2.90
2018-08-28T07:47:37.546Z,2.80
2018-08-28T07:52:39.683Z,3.23
2018-08-28T07:57:41.801Z,3.00
2018-08-28T08:02:43.914Z,2.40
2018-08-28T08:07:46.100Z,2.70
2018-08-28T08:12:48.292Z,2.70
2018-08-28T08:17:51.209Z,2.50
2018-08-28T08:22:53.348Z,2.93
2018-08-28T08:27:55.538Z,2.33
2018-08-28T08:32:57.685Z,2.60
2018-08-28T08:37:59.818Z,2.50
2018-08-28T08:43:02.169Z,3.40
2018-08-28T08:48:04.350Z,2.00
2018-08-28T08:53:06.447Z,3.10
2018-08-28T08:58:08.577Z,2.60
2018-08-28T09:03:10.721Z,3.77
2018-08-28T09:08:12.895Z,3.27
2018-08-28T09:13:15.085Z,3.40
2018-08-28T09:18:17.239Z,3.17
2018-08-28T09:23:19.344Z,3.47
2018-08-28T09:28:21.473Z,3.00
2018-08-28T09:33:23.589Z,2.53
2018-08-28T09:38:25.722Z,2.50
2018-08-28T09:43:27.870Z,2.60
2018-08-28T09:48:30.147Z,2.13
2018-08-28T09:53:32.237Z,2.83
2018-08-28T09:58:34.387Z,3.33
2018-08-28T10:03:36.498Z,2.90
2018-08-28T10:08:38.671Z,3.00
2018-08-28T10:13:40.839Z,2.47
2018-08-28T10:18:42.932Z,3.07
2018-08-28T10:23:45.091Z,2.87
2018-08-28T10:28:47.231Z,2.60
2018-08-28T10:33:49.439Z,3.10
2018-08-28T10:38:51.579Z,2.90
2018-08-28T10:43:53.690Z,2.70
2018-08-28T10:48:55.814Z,2.57
2018-08-28T10:53:57.950Z,3.20
2018-08-28T10:59:00.078Z,3.23
2018-08-28T11:04:02.501Z,2.80
2018-08-28T11:09:05.392Z,3.30
2018-08-28T11:14:07.600Z,3.60
2018-08-28T11:19:09.762Z,2.80
2018-08-28T11:24:12.844Z,2.47
2018-08-28T11:29:14.964Z,2.93
2018-08-28T11:34:17.699Z,3.30
2018-08-28T11:39:19.875Z,3.33
2018-08-28T11:44:22.054Z,2.70
2018-08-28T11:49:24.212Z,3.23
2018-08-28T11:54:26.373Z,2.90
2018-08-28T11:59:28.543Z,2.70
2018-08-28T12:04:30.705Z,2.77
2018-08-28T12:09:32.855Z,2.90
2018-08-28T12:14:35.028Z,2.83
2018-08-28T12:19:37.194Z,2.57
2018-08-28T12:24:39.379Z,2.60
2018-08-28T12:29:41.663Z,3.20
2018-08-28T12:34:43.757Z,2.50
2018-08-28T12:39:45.850Z,2.53
2018-08-28T12:44:48.024Z,2.97
2018-08-28T12:49:50.181Z,2.97
2018-08-28T12:54:52.361Z,3.00
2018-08-28T12:59:54.557Z,2.70
2018-08-28T13:04:56.716Z,3.03
2018-08-28T13:09:58.884Z,2.60
2018-08-28T13:15:01.104Z,3.00
2018-08-28T13:20:03.432Z,2.93
2018-08-28T13:25:06.348Z,2.90
2018-08-28T13:30:08.493Z,2.90
2018-08-28T13:35:10.694Z,2.93
2018-08-28T13:40:13.001Z,2.80
2018-08-28T13:45:15.106Z,2.93
2018-08-28T13:50:17.305Z,3.00
2018-08-28T13:55:19.631Z,3.00
2018-08-28T14:00:21.897Z,3.70
2018-08-28T14:05:24.091Z,4.00
2018-08-28T14:10:26.259Z,4.13
2018-08-28T14:15:28.446Z,4.20
2018-08-28T14:20:30.594Z,5.30
2018-08-28T14:25:32.759Z,4.97
2018-08-28T14:30:34.956Z,4.30
2018-08-28T14:35:37.171Z,4.00
2018-08-28T14:40:39.360Z,3.97
2018-08-28T14:45:41.626Z,4.03
2018-08-28T14:50:43.828Z,3.97
2018-08-28T14:55:46.041Z,3.10
2018-08-28T15:00:48.240Z,4.07
2018-08-28T15:05:50.401Z,3.50
2018-08-28T15:10:52.591Z,3.63
2018-08-28T15:15:54.869Z,4.10
2018-08-28T15:20:57.221Z,4.40
2018-08-28T15:25:59.448Z,4.13
2018-08-28T15:31:01.630Z,4.50
2018-08-28T15:36:03.819Z,4.50
2018-08-28T15:41:06.095Z,3.90
2018-08-28T15:46:08.365Z,3.63
2018-08-28T15:51:10.679Z,4.13
2018-08-28T15:56:12.875Z,3.73
2018-08-28T16:01:15.070Z,4.50
2018-08-28T16:06:17.283Z,5.33
2018-08-28T16:11:19.483Z,4.30
2018-08-28T16:16:21.704Z,4.07
2018-08-28T16:21:28.101Z,4.50
2018-08-28T16:26:30.353Z,4.53
2018-08-28T16:31:32.638Z,4.33
2018-08-28T16:36:34.911Z,4.40
2018-08-28T16:41:37.516Z,4.43
2018-08-28T16:46:40.000Z,3.13
2018-08-28T16:51:42.261Z,3.80
2018-08-28T16:56:44.500Z,3.60
2018-08-28T17:01:46.727Z,3.70
2018-08-28T17:06:48.937Z,4.27
2018-08-28T17:11:51.228Z,3.90
2018-08-28T17:16:53.544Z,4.10
2018-08-28T17:21:56.454Z,4.57
2018-08-28T17:26:58.685Z,3.90
2018-08-28T17:32:01.059Z,4.10
2018-08-28T17:37:03.615Z,4.17
2018-08-28T17:42:05.854Z,4.77
2018-08-28T17:47:08.162Z,3.70
2018-08-28T17:52:10.816Z,4.17
2018-08-28T17:57:13.093Z,3.53
2018-08-28T18:02:15.360Z,4.23
2018-08-28T18:07:17.699Z,4.53
2018-08-28T18:12:20.045Z,3.20
2018-08-28T18:17:22.416Z,3.90
2018-08-28T18:22:24.822Z,3.47
2018-08-28T18:27:27.128Z,3.20
2018-08-28T18:32:29.476Z,3.93
2018-08-28T18:37:32.205Z,4.20
2018-08-28T18:42:34.697Z,4.13
2018-08-28T18:47:36.987Z,3.70
2018-08-28T18:52:41.544Z,4.27
2018-08-28T18:57:44.084Z,3.80
2018-08-28T19:02:48.410Z,3.63
2018-08-28T19:07:54.541Z,4.00
2018-08-28T19:12:57.248Z,4.07
2018-08-28T19:18:00.365Z,4.10
2018-08-28T19:23:02.813Z,3.70
2018-08-28T19:28:05.163Z,4.20
2018-08-28T19:33:07.659Z,4.57
2018-08-28T19:38:10.276Z,4.03
2018-08-28T19:43:13.703Z,4.00
2018-08-28T19:48:16.351Z,3.87
2018-08-28T19:53:19.220Z,3.93
2018-08-28T19:58:21.647Z,3.90
2018-08-28T20:03:23.909Z,3.70
2018-08-28T20:08:26.219Z,3.43
2018-08-28T20:13:28.453Z,4.10
2018-08-28T20:18:30.756Z,3.83
2018-08-28T20:23:35.980Z,3.73
2018-08-28T20:28:38.652Z,3.90
2018-08-28T20:33:40.896Z,4.03
2018-08-28T20:38:43.226Z,3.53
2018-08-28T20:43:45.583Z,3.23
2018-08-28T20:48:47.869Z,3.67
2018-08-28T20:53:50.934Z,3.40
2018-08-28T20:58:53.186Z,4.40
2018-08-28T21:03:55.394Z,4.10
2018-08-28T21:08:57.747Z,5.03
2018-08-28T21:14:00.143Z,4.33
2018-08-28T21:19:02.433Z,4.00
2018-08-28T21:24:04.926Z,4.60
2018-08-28T21:29:07.204Z,3.90
2018-08-28T21:34:09.330Z,4.63
2018-08-28T21:39:11.502Z,4.40
2018-08-28T21:44:13.686Z,4.30
2018-08-28T21:49:16.320Z,4.03
2018-08-28T21:54:18.456Z,4.27
2018-08-28T21:59:20.580Z,5.37
2018-08-28T22:04:22.769Z,4.70
2018-08-28T22:09:24.914Z,5.37
2018-08-28T22:14:27.078Z,4.60
2018-08-28T22:19:29.265Z,4.13
2018-08-28T22:24:31.532Z,4.97
2018-08-28T22:29:33.700Z,5.10
2018-08-28T22:34:35.898Z,4.50
2018-08-28T22:39:38.045Z,3.93
2018-08-28T22:44:40.180Z,4.33
2018-08-28T22:49:42.375Z,4.80
2018-08-28T22:54:44.529Z,4.23
2018-08-28T22:59:46.737Z,4.53
2018-08-28T23:04:48.867Z,4.80
2018-08-28T23:09:51.015Z,3.97
2018-08-28T23:14:53.276Z,4.40
2018-08-28T23:19:55.440Z,4.50
2018-08-28T23:24:57.812Z,4.20
2018-08-28T23:30:00.120Z,4.30
2018-08-28T23:35:02.546Z,4.40
2018-08-28T23:40:04.717Z,4.17
2018-08-28T23:45:07.026Z,4.07
2018-08-28T23:50:09.184Z,4.03
2018-08-28T23:55:11.355Z,4.10
